GEC8188 EDDF-KORD
Flight info
| Callsign | GEC8188 |
|---|---|
| Flight time | N/A |
| Altitude | 36000 |
| Route | OBOKA3D OBOKA Z28 DIBIR DCT BUDIP DCT GODOS DCT MOXDE DCT NAVSO DCT MIMKU/N0480F380 DCT BILTO/M082F380 DCT 5730N02000W 5830N03000W 5830N04000W 5630N05000W DCT IRLOK/N0480F400 DCT OMTOL DCT MT J545 YVO DCT 47N080W DCT ODAXY WYNDE3 |
| Aircraft | B77L/H-SDE2E3FGHIJ1J3J4J5M1P2RWXYZ/LB1D1 |
Departure
| Time | 2026-04-17 01:00 |
|---|---|
| Airport | Frankfurt Main Airport (EDDF) |
Arrival
| Time | N/A |
|---|---|
| Airport | Chicago O'Hare International Airport (KORD) |
| Time | Latitude | Longitude | Altitude | Speed | Heading |
|---|---|---|---|---|---|
| 2026-04-17 00:32 | 50.03058 | 8.56126 | 350 ft | 0 kts | 250° |
| 2026-04-17 00:50 | 50.03058 | 8.56127 | 350 ft | 2 kts | 250° |
| 2026-04-17 00:50 | 50.03066 | 8.56164 | 355 ft | 4 kts | 258° |
| 2026-04-17 00:51 | 50.03069 | 8.56205 | 360 ft | 4 kts | 274° |
| 2026-04-17 00:51 | 50.03063 | 8.56242 | 351 ft | 4 kts | 319° |
| 2026-04-17 00:51 | 50.03059 | 8.56248 | 357 ft | 3 kts | 339° |
| 2026-04-17 00:51 | 50.03073 | 8.56239 | 351 ft | 1 kts | 340° |
| 2026-04-17 00:54 | 50.03078 | 8.56236 | 351 ft | 2 kts | 340° |
| 2026-04-17 00:55 | 50.03125 | 8.56210 | 359 ft | 12 kts | 340° |
| 2026-04-17 00:55 | 50.03167 | 8.56187 | 356 ft | 6 kts | 340° |
| 2026-04-17 00:55 | 50.03204 | 8.56183 | 361 ft | 6 kts | 15° |
| 2026-04-17 00:55 | 50.03232 | 8.56223 | 353 ft | 6 kts | 59° |
| 2026-04-17 00:56 | 50.03247 | 8.56278 | 362 ft | 6 kts | 70° |
| 2026-04-17 00:56 | 50.03261 | 8.56335 | 361 ft | 6 kts | 70° |
| 2026-04-17 00:56 | 50.03274 | 8.56393 | 358 ft | 6 kts | 70° |
| 2026-04-17 00:56 | 50.03288 | 8.56450 | 361 ft | 6 kts | 70° |
| 2026-04-17 00:57 | 50.03301 | 8.56507 | 355 ft | 6 kts | 70° |
| 2026-04-17 00:57 | 50.03315 | 8.56564 | 361 ft | 6 kts | 70° |
| 2026-04-17 00:57 | 50.03328 | 8.56622 | 353 ft | 6 kts | 70° |
| 2026-04-17 00:57 | 50.03342 | 8.56679 | 362 ft | 6 kts | 70° |
| 2026-04-17 00:58 | 50.03355 | 8.56737 | 354 ft | 6 kts | 70° |
| 2026-04-17 00:58 | 50.03369 | 8.56795 | 355 ft | 6 kts | 70° |
| 2026-04-17 00:58 | 50.03383 | 8.56852 | 360 ft | 6 kts | 68° |
| 2026-04-17 00:58 | 50.03410 | 8.56959 | 364 ft | 15 kts | 69° |
| 2026-04-17 00:59 | 50.03454 | 8.57147 | 365 ft | 15 kts | 70° |
| 2026-04-17 00:59 | 50.03512 | 8.57265 | 360 ft | 14 kts | 20° |
| 2026-04-17 00:59 | 50.03583 | 8.57199 | 366 ft | 13 kts | 296° |
| 2026-04-17 00:59 | 50.03613 | 8.57061 | 359 ft | 14 kts | 274° |
| 2026-04-17 01:00 | 50.03540 | 8.56702 | 362 ft | 77 kts | 249° |
| 2026-04-17 01:00 | 50.03222 | 8.55366 | 366 ft | 182 kts | 250° |
| 2026-04-17 01:00 | 50.02773 | 8.53306 | 1024 ft | 208 kts | 256° |
| 2026-04-17 01:00 | 50.02506 | 8.51856 | 1787 ft | 215 kts | 252° |
| 2026-04-17 01:01 | 50.01566 | 8.48974 | 2773 ft | 239 kts | 221° |
| 2026-04-17 01:01 | 50.00601 | 8.48116 | 3254 ft | 247 kts | 195° |
| 2026-04-17 01:01 | 49.98868 | 8.47698 | 3937 ft | 259 kts | 187° |
| 2026-04-17 01:01 | 49.97064 | 8.47249 | 4876 ft | 266 kts | 191° |
| 2026-04-17 01:02 | 49.95235 | 8.46710 | 5832 ft | 270 kts | 194° |
| 2026-04-17 01:02 | 49.92827 | 8.45649 | 7196 ft | 272 kts | 200° |
| 2026-04-17 01:02 | 49.91223 | 8.44114 | 8022 ft | 277 kts | 228° |
| 2026-04-17 01:02 | 49.90469 | 8.42476 | 8640 ft | 276 kts | 239° |
| 2026-04-17 01:03 | 49.89486 | 8.39884 | 9472 ft | 281 kts | 239° |
| 2026-04-17 01:03 | 49.88641 | 8.37165 | 9929 ft | 282 kts | 257° |
| 2026-04-17 01:03 | 49.88583 | 8.34156 | 9981 ft | 285 kts | 276° |
| 2026-04-17 01:03 | 49.88795 | 8.31092 | 9999 ft | 287 kts | 275° |